• Join FlightAware (Why Join?)
  • Login
  • US Flag 
03:17AM EDT


 

Airport Tracker/Info


-or-


 

Live Flight TrackerFlight Track Log ✈ SKW5542 ✈ 27-Apr-2013 ✈ CYQT - KORD

Flight Track Log - Related Links

Times and Time Zones

All times are in EDT time to prevent confusion due to time zone crossing. See the SKW5542 flight status page for this flight to view local times or setup timezone preferences in your user account.

Time Position Orientation Groundspeed Altitude Reporting Facility
EDT Latitude Longitude Course Direction KTS MPH feet Rate Location/Type
06:06AM 48.3500 -89.3167 155° Southeast 160 184 2,000  Level Winnipeg Center
06:07AM 48.3000 -89.3500 204° Southwest 200 230 3,700 2,100 Climbing Winnipeg Center
06:08AM 48.2500 -89.3000 146° Southeast 260 299 6,300 2,460 Climbing Winnipeg Center
06:09AM 47.9591 -89.0227 156° South  Level FlightAware Approximate
06:09AM 48.1833 -89.2333 146° Southeast 270 311 8,700  Level Winnipeg Center
06:10AM 47.8558 -88.9539 156° South  Level FlightAware Approximate
06:10AM 48.1000 -89.1833 158° South 300 345 10,900  Level Winnipeg Center
06:11AM 47.7653 -88.9018 155° Southeast  Level FlightAware Approximate
06:11AM 48.0167 -89.1167 152° Southeast 350 403 12,400  Level Winnipeg Center
06:12AM 47.9167 -89.0500 156° South 370 426 14,200 1,860 Climbing Winnipeg Center
06:13AM 47.8500 -88.9833 146° Southeast 360 414 16,200 1,560 Climbing Winnipeg Center
06:14AM 47.7500 -88.9000 151° Southeast 380 437 17,400 1,200 Climbing Winnipeg Center
06:15AM 47.6500 -88.8167 151° Southeast 390 449 18,600 1,260 Climbing Winnipeg Center
06:16AM 47.5500 -88.7667 161° South 400 460 20,000 1,320 Climbing Winnipeg Center
06:16AM 47.5242 -88.7528 160° South 401 461 20,700 1,320 Climbing Minneapolis Center
06:17AM 47.4228 -88.6739 152° Southeast 409 471 22,100 1,140 Climbing Minneapolis Center
06:18AM 47.3206 -88.5975 153° Southeast 411 473 23,000 960 Climbing Minneapolis Center
06:19AM 47.2136 -88.5161 153° Southeast 424 488 24,100 960 Climbing Minneapolis Center
06:20AM 47.1000 -88.4642 163° South 428 493 25,000 420 Climbing Minneapolis Center
06:21AM 46.9803 -88.4319 170° South 434 499 25,000  Level Minneapolis Center
06:22AM 46.8542 -88.3961 169° South 452 520 25,000  Level Minneapolis Center
06:23AM 46.7244 -88.3597 169° South 464 534 25,000  Level Minneapolis Center
06:24AM 46.5922 -88.3217 169° South 477 549 25,000  Level Minneapolis Center
06:25AM 46.4594 -88.2864 170° South 482 555 25,000  Level Minneapolis Center
06:26AM 46.3269 -88.2492 169° South 482 555 25,000  Level Minneapolis Center
06:27AM 46.1933 -88.2131 169° South 485 558 25,000  Level Minneapolis Center
06:28AM 46.0592 -88.1764 169° South 488 562 25,000  Level Minneapolis Center
06:29AM 45.9308 -88.1431 170° South 487 560 25,000  Level Minneapolis Center
06:30AM 45.7972 -88.1125 171° South 488 562 25,000  Level Minneapolis Center
06:31AM 45.6633 -88.1142 180° South 484 557 25,000  Level Minneapolis Center
06:32AM 45.5294 -88.1139 180° South 483 556 25,000  Level Minneapolis Center
06:33AM 45.3961 -88.1147 180° South 482 555 25,000  Level Minneapolis Center
06:34AM 45.2617 -88.1153 180° South 484 557 25,000  Level Minneapolis Center
06:35AM 45.1275 -88.1167 180° South 485 558 25,000  Level Minneapolis Center
06:36AM 44.9936 -88.1169 180° South 483 556 25,000  Level Minneapolis Center
06:37AM 44.8586 -88.1169 180° South 486 559 25,000  Level Minneapolis Center
06:38AM 44.6978 -88.1186 180° South 484 557 25,000 -420 Level Minneapolis Center
06:39AM 44.5625 -88.1181 180° South 486 559 24,200 -960 Descending Minneapolis Center
06:40AM 44.4275 -88.1192 180° South 484 557 23,100 -600 Descending Minneapolis Center
06:41AM 44.2944 -88.1194 180° South 479 551 23,000 -60 Descending Minneapolis Center
06:42AM 44.1608 -88.1211 181° South 479 551 23,000  Level Minneapolis Center
06:43AM 44.0281 -88.1219 180° South 477 549 23,000  Level Minneapolis Center
06:44AM 43.8944 -88.1225 180° South 478 550 23,000 -1,440 Level Minneapolis Center
06:45AM 43.7631 -88.1236 180° South 473 544 20,200 -2,640 Descending Minneapolis Center
06:46AM 43.6378 -88.1244 180° South 452 520 17,700 -2,640 Descending Minneapolis Center
06:47AM 43.5606 -88.1247 180° South 427 491 15,800 -2,220 Descending Chicago Center
06:48AM 43.4481 -88.1264 181° South 405 466 14,000 -1,500 Descending Chicago Center
06:49AM 43.3567 -88.1392 186° South 393 452 12,800 -1,320 Descending Chicago Center
06:50AM 43.2478 -88.1514 185° South 388 447 11,400 -1,380 Descending Chicago Center
06:51AM 43.1439 -88.1647 185° South 377 434 10,100 -720 Descending Chicago Center
06:52AM 43.0403 -88.1794 186° South 372 428 10,000 -60 Descending Chicago Center
06:53AM 42.9367 -88.1944 186° South 373 429 10,000 -300 Level Chicago Center
06:54AM 42.8519 -88.1853 175° South 303 349 9,400 -1,020 Descending Chicago Center
06:55AM 42.7742 -88.1789 177° South 280 322 8,000 -720 Descending Chicago Center
06:56AM 42.6983 -88.1725 176° South 273 314 8,000  Level Chicago Center
06:57AM 42.6222 -88.1661 176° South 273 314 8,000  Level Chicago Center
06:58AM 42.5461 -88.1583 176° South 274 315 8,000  Level Chicago Center
06:59AM 42.4569 -88.1497 176° South 274 315 8,000  Level Chicago Center
07:00AM 42.3808 -88.1422 176° South 274 315 8,000 -120 Level Chicago Center
07:01AM 42.3086 -88.1336 175° South 278 320 7,800 -900 Descending Chicago Center
07:02AM 42.2358 -88.1278 177° South 264 304 6,200 -1,440 Descending Chicago Center
07:03AM 42.1775 -88.1181 173° South 219 252 5,000 -900 Descending Chicago Center
07:04AM 42.1311 -88.0914 157° South 186 214 4,400 -840 Descending Chicago Center
07:05AM 42.1000 -88.0667 149° Southeast 180 207 3,800 -1,140 Descending Chicago TRACON
07:05AM 42.0667 -88.0333 143° Southeast 184 212 2,900 -1,020 Descending Chicago TRACON